Time;durP1;ratioP1;P1;durP2;ratioP2;P2;SDS_P1;SDS_P2;PMS_P1;PMS_P2;Temp;Humidity;BMP_temperature;BMP_pressure;BME280_temperature;BME280_humidity;BME280_pressure;Samples;Min_cycle;Max_cycle;Signal;HPM_P1;HPM_P2
2022/06/27 00:00:32;;;;;;;;;;;;;;;;;;4980029;28;20056;-52
2022/06/27 00:02:59;;;;;;;;;;;;;;;;;;4997407;28;20016;-51
2022/06/27 00:05:26;;;;;;;;;;;;;;;;;;5021853;28;20295;-52
2022/06/27 00:07:51;;;;;;;;;;;;;;;;;;4988916;28;19996;-52
2022/06/27 00:10:17;;;;;;;;;;;;;;;;;;4988323;28;20024;-50
2022/06/27 00:12:43;;;;;;;;;;;;;;;;;;4989141;28;20315;-51
2022/06/27 00:15:09;;;;;;;;;;;;;;;;;;4988330;28;20445;-51
2022/06/27 00:17:35;;;;;;;;;;;;;;;;;;4986903;28;20463;-51
2022/06/27 00:20:02;;;;;;;;;;;;;;;;;;4989133;28;20296;-52
2022/06/27 00:22:28;;;;;;;;;;;;;;;;;;4987713;28;19951;-53
2022/06/27 00:24:55;;;;;;;;;;;;;;;;;;4988593;28;19914;-52
2022/06/27 00:27:21;;;;;;;;;;;;;;;;;;4985666;28;19918;-53
2022/06/27 00:29:47;;;;;;;;;;;;;;;;;;4986524;28;19937;-55
2022/06/27 00:32:13;;;;;;;;;;;;;;;;;;4987467;28;20408;-53
2022/06/27 00:34:39;;;;;;;;;;;;;;;;;;4988214;28;19985;-56
2022/06/27 00:37:04;;;;;;;;;;;;;;;;;;4986689;28;19909;-54
2022/06/27 00:39:30;;;;;;;;;;;;;;;;;;4988712;28;19910;-55
2022/06/27 00:41:57;;;;;;;;;;;;;;;;;;4987679;28;19939;-55
2022/06/27 00:44:23;;;;;;;;;;;;;;;;;;4988227;28;19910;-54
2022/06/27 00:46:49;;;;;;;;;;;;;;;;;;4987887;28;19928;-55
2022/06/27 00:49:15;;;;;;;;;;;;;;;;;;4987695;28;19906;-55
2022/06/27 00:51:41;;;;;;;;;;;;;;;;;;4987638;28;19901;-54
2022/06/27 00:54:07;;;;;;;;;;;;;;;;;;4987654;28;19929;-54
2022/06/27 00:56:33;;;;;;;;;;;;;;;;;;4988352;28;19937;-54
2022/06/27 00:58:59;;;;;;;;;;;;;;;;;;4988231;28;20285;-54
2022/06/27 01:01:25;;;;;;;;;;;;;;;;;;4987754;28;20343;-54
2022/06/27 01:03:51;;;;;;;;;;;;;;;;;;4987410;28;19964;-54
2022/06/27 01:06:17;;;;;;;;;;;;;;;;;;4987608;28;20580;-54
2022/06/27 01:08:43;;;;;;;;;;;;;;;;;;4987472;28;19959;-55
2022/06/27 01:11:10;;;;;;;;;;;;;;;;;;4987204;28;19996;-54
2022/06/27 01:13:36;;;;;;;;;;;;;;;;;;4987602;28;20012;-54
2022/06/27 01:16:03;;;;;;;;;;;;;;;;;;4987777;28;20004;-55
2022/06/27 01:18:30;;;;;;;;;;;;;;;;;;4988124;28;20017;-55
2022/06/27 01:20:56;;;;;;;;;;;;;;;;;;4987443;28;19914;-55
2022/06/27 01:23:21;;;;;;;;;;;;;;;;;;4987093;28;19913;-55
2022/06/27 01:25:47;;;;;;;;;;;;;;;;;;4987325;28;19912;-55
2022/06/27 01:28:13;;;;;;;;;;;;;;;;;;4987113;28;20371;-54
2022/06/27 01:30:40;;;;;;;;;;;;;;;;;;4987177;28;19916;-55
2022/06/27 01:33:07;;;;;;;;;;;;;;;;;;4986714;28;19913;-55
2022/06/27 01:35:33;;;;;;;;;;;;;;;;;;4987177;28;19906;-56
2022/06/27 01:37:59;;;;;;;;;;;;;;;;;;4987563;28;19916;-54
2022/06/27 01:40:25;;;;;;;;;;;;;;;;;;4986148;28;20365;-56
2022/06/27 01:42:51;;;;;;;;;;;;;;;;;;4987096;28;19952;-54
2022/06/27 01:45:16;;;;;;;;;;;;;;;;;;4986631;28;19912;-55
2022/06/27 01:47:42;;;;;;;;;;;;;;;;;;4986753;28;19913;-55
2022/06/27 01:50:09;;;;;;;;;;;;;;;;;;4987135;28;20420;-54
2022/06/27 01:52:34;;;;;;;;;;;;;;;;;;4986917;28;19939;-55
2022/06/27 01:55:01;;;;;;;;;;;;;;;;;;4987116;28;20000;-55
2022/06/27 01:57:28;;;;;;;;;;;;;;;;;;4986832;28;20369;-55
2022/06/27 01:59:54;;;;;;;;;;;;;;;;;;4986609;28;20345;-55
2022/06/27 02:02:21;;;;;;;;;;;;;;;;;;4986076;28;19971;-55
2022/06/27 02:04:47;;;;;;;;;;;;;;;;;;4986697;28;20384;-54
2022/06/27 02:07:13;;;;;;;;;;;;;;;;;;4986572;28;19905;-54
2022/06/27 02:09:40;;;;;;;;;;;;;;;;;;4986183;28;19916;-55
2022/06/27 02:12:18;;;;;;;;;;;;;;;;;;4986322;28;19906;-54
2022/06/27 02:14:44;;;;;;;;;;;;;;;;;;4986396;28;20396;-53
2022/06/27 02:17:10;;;;;;;;;;;;;;;;;;4986067;28;20145;-54
2022/06/27 02:19:37;;;;;;;;;;;;;;;;;;4986363;28;19910;-56
2022/06/27 02:22:03;;;;;;;;;;;;;;;;;;4985911;28;19910;-54
2022/06/27 02:24:28;;;;;;;;;;;;;;;;;;4987062;28;19909;-55
2022/06/27 02:26:54;;;;;;;;;;;;;;;;;;4986251;28;19963;-55
2022/06/27 02:29:21;;;;;;;;;;;;;;;;;;4985984;28;19910;-53
2022/06/27 02:31:47;;;;;;;;;;;;;;;;;;4986279;28;19902;-55
2022/06/27 02:34:13;;;;;;;;;;;;;;;;;;4986026;28;20308;-54
2022/06/27 02:36:41;;;;;;;;;;;;;;;;;;4986173;28;19925;-54
2022/06/27 02:39:07;;;;;;;;;;;;;;;;;;4986090;28;19932;-54
2022/06/27 02:41:32;;;;;;;;;;;;;;;;;;4986430;28;19985;-53
2022/06/27 02:44:00;;;;;;;;;;;;;;;;;;4986285;28;19906;-54
2022/06/27 02:46:27;;;;;;;;;;;;;;;;;;4986042;28;19917;-54
2022/06/27 02:48:52;;;;;;;;;;;;;;;;;;4986711;28;20657;-54
2022/06/27 02:51:19;;;;;;;;;;;;;;;;;;4985524;28;19936;-55
2022/06/27 02:53:47;;;;;;;;;;;;;;;;;;4986209;28;19913;-55
2022/06/27 02:56:12;;;;;;;;;;;;;;;;;;5000779;28;19945;-54
2022/06/27 02:58:38;;;;;;;;;;;;;;;;;;4986105;28;19945;-54
2022/06/27 03:01:04;;;;;;;;;;;;;;;;;;4985367;28;20296;-54
2022/06/27 03:03:30;;;;;;;;;;;;;;;;;;4986420;28;19906;-55
2022/06/27 03:05:57;;;;;;;;;;;;;;;;;;4986048;28;20320;-54
2022/06/27 03:08:23;;;;;;;;;;;;;;;;;;4985961;28;19914;-54
2022/06/27 03:10:49;;;;;;;;;;;;;;;;;;4985733;28;19984;-54
2022/06/27 03:13:15;;;;;;;;;;;;;;;;;;4985568;28;19949;-53
2022/06/27 03:15:40;;;;;;;;;;;;;;;;;;4984639;28;19912;-54
2022/06/27 03:18:06;;;;;;;;;;;;;;;;;;4985845;28;19905;-55
2022/06/27 03:20:32;;;;;;;;;;;;;;;;;;4985893;28;19959;-55
2022/06/27 03:22:59;;;;;;;;;;;;;;;;;;4986601;28;19913;-54
2022/06/27 03:25:25;;;;;;;;;;;;;;;;;;4985747;28;19910;-55
2022/06/27 03:27:51;;;;;;;;;;;;;;;;;;4985469;28;19905;-55
2022/06/27 03:30:17;;;;;;;;;;;;;;;;;;4985520;28;19905;-55
2022/06/27 03:32:43;;;;;;;;;;;;;;;;;;4985225;28;19992;-55
2022/06/27 03:35:08;;;;;;;;;;;;;;;;;;4985918;28;19909;-54
2022/06/27 03:37:34;;;;;;;;;;;;;;;;;;4985545;28;19997;-55
2022/06/27 03:40:00;;;;;;;;;;;;;;;;;;4986180;28;19909;-54
2022/06/27 03:42:27;;;;;;;;;;;;;;;;;;4985380;28;19920;-58
2022/06/27 03:44:53;;;;;;;;;;;;;;;;;;4985574;28;19909;-53
2022/06/27 03:47:20;;;;;;;;;;;;;;;;;;4985317;28;20006;-53
2022/06/27 03:50:02;;;;;;;;;;;;;;;;;;4985228;28;19905;-53
2022/06/27 03:52:27;;;;;;;;;;;;;;;;;;4985870;28;19932;-55
2022/06/27 03:54:53;;;;;;;;;;;;;;;;;;4987309;28;20636;-54
2022/06/27 03:57:19;;;;;;;;;;;;;;;;;;4987188;28;19906;-54
2022/06/27 03:59:46;;;;;;;;;;;;;;;;;;4986923;28;20008;-54
2022/06/27 04:02:14;;;;;;;;;;;;;;;;;;4986989;28;19910;-53
2022/06/27 04:04:40;;;;;;;;;;;;;;;;;;4989668;28;20419;-54
2022/06/27 04:07:07;;;;;;;;;;;;;;;;;;4990818;28;19955;-55
2022/06/27 04:09:34;;;;;;;;;;;;;;;;;;4990492;28;20354;-53
2022/06/27 04:12:00;;;;;;;;;;;;;;;;;;4990502;28;19905;-53
2022/06/27 04:14:26;;;;;;;;;;;;;;;;;;4990461;28;19920;-53
2022/06/27 04:16:52;;;;;;;;;;;;;;;;;;4987033;28;20357;-54
2022/06/27 04:19:18;;;;;;;;;;;;;;;;;;4987764;28;20416;-54
2022/06/27 04:21:44;;;;;;;;;;;;;;;;;;4986710;28;20164;-53
2022/06/27 04:24:09;;;;;;;;;;;;;;;;;;4988710;28;20432;-54
2022/06/27 04:26:36;;;;;;;;;;;;;;;;;;4988860;28;19909;-53
2022/06/27 04:29:02;;;;;;;;;;;;;;;;;;4989076;28;19913;-54
2022/06/27 04:31:28;;;;;;;;;;;;;;;;;;4987848;28;19905;-55
2022/06/27 04:33:55;;;;;;;;;;;;;;;;;;4988274;28;19910;-54
2022/06/27 04:36:21;;;;;;;;;;;;;;;;;;4988404;28;19982;-54
2022/06/27 04:38:47;;;;;;;;;;;;;;;;;;4987898;28;19961;-54
2022/06/27 04:41:13;;;;;;;;;;;;;;;;;;4987814;28;19964;-54
2022/06/27 04:43:39;;;;;;;;;;;;;;;;;;4987550;28;20401;-53
2022/06/27 04:46:05;;;;;;;;;;;;;;;;;;4988546;28;20336;-54
2022/06/27 04:48:32;;;;;;;;;;;;;;;;;;4987909;28;19992;-54
2022/06/27 04:50:59;;;;;;;;;;;;;;;;;;4987963;28;19905;-54
2022/06/27 04:53:27;;;;;;;;;;;;;;;;;;4987946;28;20053;-54
2022/06/27 04:55:54;;;;;;;;;;;;;;;;;;4987842;28;19912;-54
2022/06/27 04:58:21;;;;;;;;;;;;;;;;;;4987728;28;20332;-54
2022/06/27 05:00:47;;;;;;;;;;;;;;;;;;4987272;28;20487;-54
2022/06/27 05:03:14;;;;;;;;;;;;;;;;;;4987820;28;19917;-53
2022/06/27 05:05:41;;;;;;;;;;;;;;;;;;4987703;28;19916;-53
2022/06/27 05:08:07;;;;;;;;;;;;;;;;;;4987712;28;19910;-54
2022/06/27 05:10:33;;;;;;;;;;;;;;;;;;5002723;28;19913;-54
2022/06/27 05:12:59;;;;;;;;;;;;;;;;;;4987623;28;20004;-53
2022/06/27 05:15:25;;;;;;;;;;;;;;;;;;4986108;28;19917;-53
2022/06/27 05:17:52;;;;;;;;;;;;;;;;;;4987239;28;19906;-53
2022/06/27 05:20:18;;;;;;;;;;;;;;;;;;4987158;28;19917;-51
2022/06/27 05:22:44;;;;;;;;;;;;;;;;;;4987305;28;19914;-54
2022/06/27 05:25:10;;;;;;;;;;;;;;;;;;4988615;28;20372;-54
2022/06/27 05:27:36;;;;;;;;;;;;;;;;;;4976007;28;19960;-55
2022/06/27 05:30:03;;;;;;;;;;;;;;;;;;4969303;28;20365;-53
2022/06/27 05:32:29;;;;;;;;;;;;;;;;;;4970490;28;19912;-55
2022/06/27 05:34:55;;;;;;;;;;;;;;;;;;4988433;28;19905;-54
2022/06/27 05:37:21;;;;;;;;;;;;;;;;;;4988767;28;19956;-53
2022/06/27 05:39:47;;;;;;;;;;;;;;;;;;4975615;28;20051;-52
2022/06/27 05:42:13;;;;;;;;;;;;;;;;;;4968805;28;19914;-54
2022/06/27 05:44:39;;;;;;;;;;;;;;;;;;4968714;28;19910;-54
2022/06/27 05:47:05;;;;;;;;;;;;;;;;;;4969530;28;19917;-54
2022/06/27 05:49:31;;;;;;;;;;;;;;;;;;4967983;28;19910;-54
2022/06/27 05:51:57;;;;;;;;;;;;;;;;;;4967243;28;19906;-54
2022/06/27 05:54:24;;;;;;;;;;;;;;;;;;4983686;28;19996;-54
2022/06/27 05:56:50;;;;;;;;;;;;;;;;;;4988068;28;20776;-53
2022/06/27 05:59:17;;;;;;;;;;;;;;;;;;4987705;28;19918;-53
2022/06/27 06:01:46;;;;;;;;;;;;;;;;;;4987583;28;19976;-55
2022/06/27 06:04:12;;;;;;;;;;;;;;;;;;4987909;28;19910;-53
2022/06/27 06:06:38;;;;;;;;;;;;;;;;;;4987456;28;19992;-53
2022/06/27 06:09:04;;;;;;;;;;;;;;;;;;4988836;28;19940;-53
2022/06/27 06:11:30;;;;;;;;;;;;;;;;;;4987397;28;19967;-54
2022/06/27 06:13:57;;;;;;;;;;;;;;;;;;4984660;28;20001;-53
2022/06/27 06:16:23;;;;;;;;;;;;;;;;;;4987908;28;19960;-53
2022/06/27 06:18:57;;;;;;;;;;;;;;;;;;4986559;28;19909;-53
2022/06/27 06:21:23;;;;;;;;;;;;;;;;;;5002729;28;20508;-54
2022/06/27 06:23:49;;;;;;;;;;;;;;;;;;4987696;28;19932;-54
2022/06/27 06:26:16;;;;;;;;;;;;;;;;;;4987111;28;20525;-54
2022/06/27 06:28:42;;;;;;;;;;;;;;;;;;4988153;28;19910;-53
2022/06/27 06:31:08;;;;;;;;;;;;;;;;;;4987637;28;19932;-54
2022/06/27 06:33:34;;;;;;;;;;;;;;;;;;4988103;28;20420;-54
2022/06/27 06:36:00;;;;;;;;;;;;;;;;;;4986148;28;19910;-51
2022/06/27 06:38:26;;;;;;;;;;;;;;;;;;4983746;28;19921;-54
2022/06/27 06:40:52;;;;;;;;;;;;;;;;;;4986992;28;20345;-54
2022/06/27 06:43:18;;;;;;;;;;;;;;;;;;4985448;28;19955;-53
2022/06/27 06:45:44;;;;;;;;;;;;;;;;;;4987328;28;19913;-53
2022/06/27 06:48:13;;;;;;;;;;;;;;;;;;4987091;28;19956;-51
2022/06/27 06:50:41;;;;;;;;;;;;;;;;;;4978569;28;19993;-54
2022/06/27 06:53:07;;;;;;;;;;;;;;;;;;4975313;28;20289;-53
2022/06/27 06:55:32;;;;;;;;;;;;;;;;;;4984152;28;19913;-52
2022/06/27 06:57:59;;;;;;;;;;;;;;;;;;4982747;28;19910;-55
2022/06/27 07:00:27;;;;;;;;;;;;;;;;;;4979512;28;20404;-55
2022/06/27 07:02:55;;;;;;;;;;;;;;;;;;4969817;28;19909;-53
2022/06/27 07:05:21;;;;;;;;;;;;;;;;;;4982524;28;19921;-55
2022/06/27 07:07:51;;;;;;;;;;;;;;;;;;4984820;28;19914;-54
2022/06/27 07:10:18;;;;;;;;;;;;;;;;;;4988085;28;19909;-55
2022/06/27 07:12:44;;;;;;;;;;;;;;;;;;4988295;28;19909;-49
2022/06/27 07:15:10;;;;;;;;;;;;;;;;;;4981043;28;20004;-52
2022/06/27 07:17:37;;;;;;;;;;;;;;;;;;4984372;28;19957;-52
2022/06/27 07:20:03;;;;;;;;;;;;;;;;;;4987896;28;20368;-49
2022/06/27 07:22:30;;;;;;;;;;;;;;;;;;4987526;28;19972;-49
2022/06/27 07:24:56;;;;;;;;;;;;;;;;;;4987993;28;20487;-49
2022/06/27 07:27:23;;;;;;;;;;;;;;;;;;4979863;28;20478;-49
2022/06/27 07:29:49;;;;;;;;;;;;;;;;;;4982246;28;20281;-51
2022/06/27 07:32:15;;;;;;;;;;;;;;;;;;4986627;28;19914;-50
2022/06/27 07:34:41;;;;;;;;;;;;;;;;;;4987399;28;19916;-52
2022/06/27 07:37:07;;;;;;;;;;;;;;;;;;4986590;28;19964;-51
2022/06/27 07:39:34;;;;;;;;;;;;;;;;;;4987891;28;19917;-51
2022/06/27 07:42:01;;;;;;;;;;;;;;;;;;4986779;28;19920;-54
2022/06/27 07:44:27;;;;;;;;;;;;;;;;;;4990934;28;19910;-54
2022/06/27 07:46:53;;;;;;;;;;;;;;;;;;4989589;28;19992;-52
2022/06/27 07:49:19;;;;;;;;;;;;;;;;;;4991080;28;19909;-50
2022/06/27 07:51:47;;;;;;;;;;;;;;;;;;4991226;28;19912;-50
2022/06/27 07:54:14;;;;;;;;;;;;;;;;;;4974939;28;19910;-49
2022/06/27 07:56:41;;;;;;;;;;;;;;;;;;4972639;28;19936;-49
2022/06/27 07:59:07;;;;;;;;;;;;;;;;;;4990580;28;20140;-48
2022/06/27 08:01:33;;;;;;;;;;;;;;;;;;4990821;28;20278;-49
2022/06/27 08:04:01;;;;;;;;;;;;;;;;;;4988355;28;20303;-48
2022/06/27 08:06:28;;;;;;;;;;;;;;;;;;4972525;28;19946;-50
2022/06/27 08:08:54;;;;;;;;;;;;;;;;;;4987235;28;20007;-50
2022/06/27 08:11:20;;;;;;;;;;;;;;;;;;4979209;28;20008;-49
2022/06/27 08:13:47;;;;;;;;;;;;;;;;;;4989219;28;20428;-48
2022/06/27 08:16:14;;;;;;;;;;;;;;;;;;4992533;28;19910;-49
2022/06/27 08:18:42;;;;;;;;;;;;;;;;;;4987030;28;19910;-50
2022/06/27 08:21:09;;;;;;;;;;;;;;;;;;4990312;28;19984;-49
2022/06/27 08:23:36;;;;;;;;;;;;;;;;;;4989706;28;19959;-50
2022/06/27 08:26:04;;;;;;;;;;;;;;;;;;4990870;28;19909;-50
2022/06/27 08:28:31;;;;;;;;;;;;;;;;;;4990133;28;19910;-48
2022/06/27 08:31:01;;;;;;;;;;;;;;;;;;4986991;28;19910;-49
2022/06/27 08:33:27;;;;;;;;;;;;;;;;;;4990104;28;20071;-49
2022/06/27 08:35:54;;;;;;;;;;;;;;;;;;4990407;28;19945;-49
2022/06/27 08:38:22;;;;;;;;;;;;;;;;;;4990364;28;19912;-48
2022/06/27 08:40:48;;;;;;;;;;;;;;;;;;4988412;28;19920;-50
2022/06/27 08:43:15;;;;;;;;;;;;;;;;;;5000420;28;19920;-52
2022/06/27 08:45:43;;;;;;;;;;;;;;;;;;4992394;28;19940;-52
2022/06/27 08:48:09;;;;;;;;;;;;;;;;;;4994769;28;19947;-53
2022/06/27 08:50:35;;;;;;;;;;;;;;;;;;4991991;28;19913;-50
2022/06/27 08:53:01;;;;;;;;;;;;;;;;;;4990449;28;19909;-52
2022/06/27 08:55:27;;;;;;;;;;;;;;;;;;4990336;28;19905;-51
2022/06/27 08:57:53;;;;;;;;;;;;;;;;;;4989016;28;20416;-52
2022/06/27 09:00:19;;;;;;;;;;;;;;;;;;4988332;28;19941;-53
2022/06/27 09:02:45;;;;;;;;;;;;;;;;;;4985920;28;19968;-51
2022/06/27 09:05:11;;;;;;;;;;;;;;;;;;4990071;28;20447;-50
2022/06/27 09:07:37;;;;;;;;;;;;;;;;;;4984840;28;19906;-52
2022/06/27 09:10:03;;;;;;;;;;;;;;;;;;4989906;28;19918;-52
2022/06/27 09:12:30;;;;;;;;;;;;;;;;;;4989753;28;19906;-52
2022/06/27 09:14:56;;;;;;;;;;;;;;;;;;4989424;28;20356;-53
2022/06/27 09:17:22;;;;;;;;;;;;;;;;;;4988762;28;20004;-53
2022/06/27 09:19:48;;;;;;;;;;;;;;;;;;4989434;28;20385;-51
2022/06/27 09:22:15;;;;;;;;;;;;;;;;;;4990100;28;19913;-53
2022/06/27 09:24:41;;;;;;;;;;;;;;;;;;4989173;28;20389;-53
2022/06/27 09:27:08;;;;;;;;;;;;;;;;;;4989567;28;19914;-53
2022/06/27 09:29:34;;;;;;;;;;;;;;;;;;4988088;28;19913;-51
2022/06/27 09:32:00;;;;;;;;;;;;;;;;;;4989411;28;19910;-52
2022/06/27 09:34:26;;;;;;;;;;;;;;;;;;4989017;28;19906;-52
2022/06/27 09:36:52;;;;;;;;;;;;;;;;;;4986316;28;19929;-52
2022/06/27 09:39:18;;;;;;;;;;;;;;;;;;4984790;28;20028;-52
2022/06/27 09:41:47;;;;;;;;;;;;;;;;;;4987148;28;19918;-52
2022/06/27 09:44:14;;;;;;;;;;;;;;;;;;4981670;28;19961;-51
2022/06/27 09:46:42;;;;;;;;;;;;;;;;;;4969318;28;20421;-53
2022/06/27 09:49:10;;;;;;;;;;;;;;;;;;4969841;28;20381;-52
2022/06/27 09:51:36;;;;;;;;;;;;;;;;;;4981809;28;19917;-50
2022/06/27 09:54:08;;;;;;;;;;;;;;;;;;4989195;28;19910;-51
2022/06/27 09:56:35;;;;;;;;;;;;;;;;;;4981527;28;20032;-52
2022/06/27 09:59:01;;;;;;;;;;;;;;;;;;4985042;28;19910;-50
2022/06/27 10:01:28;;;;;;;;;;;;;;;;;;4988146;28;20349;-51
2022/06/27 10:03:54;;;;;;;;;;;;;;;;;;4987721;28;19917;-49
2022/06/27 10:06:21;;;;;;;;;;;;;;;;;;4979666;28;19910;-49
2022/06/27 10:08:47;;;;;;;;;;;;;;;;;;4985525;28;19917;-51
2022/06/27 10:11:13;;;;;;;;;;;;;;;;;;4986885;28;19918;-51
2022/06/27 10:13:39;;;;;;;;;;;;;;;;;;4985515;28;20431;-52
2022/06/27 10:16:05;;;;;;;;;;;;;;;;;;4988532;28;20300;-50
2022/06/27 10:18:33;;;;;;;;;;;;;;;;;;4987075;28;19910;-49
2022/06/27 10:20:58;;;;;;;;;;;;;;;;;;4988567;28;19917;-51
2022/06/27 10:23:28;;;;;;;;;;;;;;;;;;4988423;28;19910;-53
2022/06/27 10:25:56;;;;;;;;;;;;;;;;;;4987456;28;19910;-51
2022/06/27 10:28:22;;;;;;;;;;;;;;;;;;4985464;28;19914;-50
2022/06/27 10:30:48;;;;;;;;;;;;;;;;;;4987012;28;20653;-48
2022/06/27 10:33:14;;;;;;;;;;;;;;;;;;4987095;28;20016;-49
2022/06/27 10:35:40;;;;;;;;;;;;;;;;;;4987508;28;19905;-50
2022/06/27 10:38:05;;;;;;;;;;;;;;;;;;4986927;28;20069;-50
2022/06/27 10:40:31;;;;;;;;;;;;;;;;;;4984032;28;19918;-52
2022/06/27 10:42:57;;;;;;;;;;;;;;;;;;4986642;28;19913;-52
2022/06/27 10:45:23;;;;;;;;;;;;;;;;;;4987390;28;20646;-53
2022/06/27 10:47:49;;;;;;;;;;;;;;;;;;4983165;28;19951;-52
2022/06/27 10:50:15;;;;;;;;;;;;;;;;;;4988017;28;19948;-48
2022/06/27 10:52:41;;;;;;;;;;;;;;;;;;4986366;28;19917;-53
2022/06/27 10:55:07;;;;;;;;;;;;;;;;;;4985950;28;19980;-51
2022/06/27 10:57:33;;;;;;;;;;;;;;;;;;4992095;28;20008;-51
2022/06/27 10:59:59;;;;;;;;;;;;;;;;;;4984758;28;19920;-53
2022/06/27 11:02:25;;;;;;;;;;;;;;;;;;4984410;28;19956;-49
2022/06/27 11:04:51;;;;;;;;;;;;;;;;;;4982335;28;19910;-48
2022/06/27 11:07:17;;;;;;;;;;;;;;;;;;4981801;28;19941;-51
2022/06/27 11:09:43;;;;;;;;;;;;;;;;;;4982971;28;19910;-50
2022/06/27 11:12:10;;;;;;;;;;;;;;;;;;4984519;28;19960;-52
2022/06/27 11:14:36;;;;;;;;;;;;;;;;;;4988020;28;20127;-51
2022/06/27 11:17:02;;;;;;;;;;;;;;;;;;4987686;28;19968;-52
2022/06/27 11:22:13;;;;;;;;;;;;;;;;;;4987594;28;20006;-52
2022/06/27 11:24:39;;;;;;;;;;;;;;;;;;4987119;28;19915;-52
2022/06/27 11:27:05;;;;;;;;;;;;;;;;;;4986799;28;20392;-51
2022/06/27 11:32:15;;;;;;;;;;;;;;;;;;4988665;28;19964;-50
2022/06/27 11:34:41;;;;;;;;;;;;;;;;;;4988592;28;19953;-50
2022/06/27 11:37:07;;;;;;;;;;;;;;;;;;4987490;28;19910;-52
2022/06/27 11:39:34;;;;;;;;;;;;;;;;;;4987158;28;20004;-52
2022/06/27 11:42:00;;;;;;;;;;;;;;;;;;4987243;28;19913;-48
2022/06/27 11:44:27;;;;;;;;;;;;;;;;;;4987413;28;19996;-51
2022/06/27 11:46:53;;;;;;;;;;;;;;;;;;4988598;28;19910;-51
2022/06/27 11:49:19;;;;;;;;;;;;;;;;;;4986334;28;19964;-49
2022/06/27 11:51:47;;;;;;;;;;;;;;;;;;4987595;28;20373;-51
2022/06/27 11:54:14;;;;;;;;;;;;;;;;;;4987607;28;19909;-52
2022/06/27 11:56:41;;;;;;;;;;;;;;;;;;4988181;28;19913;-53
2022/06/27 11:59:07;;;;;;;;;;;;;;;;;;4987807;28;19956;-51
2022/06/27 12:01:33;;;;;;;;;;;;;;;;;;4988206;28;20328;-52
2022/06/27 12:03:58;;;;;;;;;;;;;;;;;;4987818;28;20349;-50
2022/06/27 12:06:25;;;;;;;;;;;;;;;;;;4987627;28;19948;-49
2022/06/27 12:08:51;;;;;;;;;;;;;;;;;;4985047;28;20497;-53
2022/06/27 12:11:17;;;;;;;;;;;;;;;;;;4983782;28;19910;-51
2022/06/27 12:13:43;;;;;;;;;;;;;;;;;;4989463;28;19909;-50
2022/06/27 12:16:09;;;;;;;;;;;;;;;;;;4988334;28;20024;-52
2022/06/27 12:18:35;;;;;;;;;;;;;;;;;;4984380;28;19917;-53
2022/06/27 12:21:01;;;;;;;;;;;;;;;;;;4987118;28;19910;-52
2022/06/27 12:23:27;;;;;;;;;;;;;;;;;;4987783;28;19906;-52
2022/06/27 12:25:53;;;;;;;;;;;;;;;;;;4987440;28;19917;-50
2022/06/27 12:28:19;;;;;;;;;;;;;;;;;;4987083;28;20036;-52
2022/06/27 12:30:45;;;;;;;;;;;;;;;;;;4986957;28;19918;-50
2022/06/27 12:33:12;;;;;;;;;;;;;;;;;;4987183;28;19909;-50
2022/06/27 12:35:39;;;;;;;;;;;;;;;;;;4987098;28;19947;-51
2022/06/27 12:38:07;;;;;;;;;;;;;;;;;;4986711;28;19941;-52
2022/06/27 12:40:32;;;;;;;;;;;;;;;;;;4985096;28;20436;-52
2022/06/27 12:42:58;;;;;;;;;;;;;;;;;;4986823;28;20004;-51
2022/06/27 12:45:24;;;;;;;;;;;;;;;;;;4986432;28;19914;-51
2022/06/27 12:47:50;;;;;;;;;;;;;;;;;;4987179;28;19976;-52
2022/06/27 12:50:16;;;;;;;;;;;;;;;;;;4987503;28;19918;-52
2022/06/27 12:52:42;;;;;;;;;;;;;;;;;;4981529;28;19909;-51
2022/06/27 12:55:08;;;;;;;;;;;;;;;;;;4984088;28;20292;-52
2022/06/27 12:57:34;;;;;;;;;;;;;;;;;;4985809;28;19917;-52
2022/06/27 13:00:00;;;;;;;;;;;;;;;;;;4987514;28;19976;-52
2022/06/27 13:02:27;;;;;;;;;;;;;;;;;;4985539;28;20388;-51
2022/06/27 13:04:54;;;;;;;;;;;;;;;;;;4986258;28;19997;-51
2022/06/27 13:07:20;;;;;;;;;;;;;;;;;;4985448;28;19920;-50
2022/06/27 13:09:46;;;;;;;;;;;;;;;;;;4985591;28;19906;-50
2022/06/27 13:12:12;;;;;;;;;;;;;;;;;;5001627;28;19917;-51
2022/06/27 13:14:37;;;;;;;;;;;;;;;;;;4985168;28;19905;-52
2022/06/27 13:17:03;;;;;;;;;;;;;;;;;;4986337;28;19952;-52
2022/06/27 13:19:29;;;;;;;;;;;;;;;;;;4986500;28;20183;-49
2022/06/27 13:21:55;;;;;;;;;;;;;;;;;;4986046;28;20303;-52
2022/06/27 13:24:21;;;;;;;;;;;;;;;;;;4985597;28;20396;-52
2022/06/27 13:26:48;;;;;;;;;;;;;;;;;;4986165;28;20045;-49
2022/06/27 13:29:14;;;;;;;;;;;;;;;;;;4983144;28;20008;-53
2022/06/27 13:31:41;;;;;;;;;;;;;;;;;;4985824;28;20371;-49
2022/06/27 13:34:07;;;;;;;;;;;;;;;;;;4985521;28;19936;-52
2022/06/27 13:36:33;;;;;;;;;;;;;;;;;;4984599;28;19952;-52
2022/06/27 13:38:59;;;;;;;;;;;;;;;;;;4985622;28;19924;-50
2022/06/27 13:41:25;;;;;;;;;;;;;;;;;;4997682;28;19924;-51
2022/06/27 13:43:51;;;;;;;;;;;;;;;;;;4985752;28;19949;-49
2022/06/27 13:46:17;;;;;;;;;;;;;;;;;;4984028;28;20377;-52
2022/06/27 13:48:44;;;;;;;;;;;;;;;;;;4985315;28;19914;-53
2022/06/27 13:51:10;;;;;;;;;;;;;;;;;;4986052;28;19914;-49
2022/06/27 13:53:36;;;;;;;;;;;;;;;;;;4985091;28;19905;-53
2022/06/27 13:56:02;;;;;;;;;;;;;;;;;;4985419;28;20613;-52
2022/06/27 13:58:35;;;;;;;;;;;;;;;;;;5102639;27;19934;-51
2022/06/27 14:01:01;;;;;;;;;;;;;;;;;;5088884;28;20354;-50
2022/06/27 14:03:27;;;;;;;;;;;;;;;;;;5064157;28;19916;-51
2022/06/27 14:07:35;;;;;;;;;;;;;;;;;;5082047;28;19908;-48
2022/06/27 14:08:39;;;;;;;;;;;;;;;;;;5087712;28;19998;-51
2022/06/27 14:11:05;;;;;;;;;;;;;;;;;;5081698;28;20003;-51
2022/06/27 14:13:32;;;;;;;;;;;;;;;;;;5088783;28;19915;-48
2022/06/27 14:15:58;;;;;;;;;;;;;;;;;;5082130;28;19908;-48
2022/06/27 14:18:23;;;;;;;;;;;;;;;;;;5080045;28;19920;-49
2022/06/27 14:20:49;;;;;;;;;;;;;;;;;;5069032;28;20510;-51
2022/06/27 14:23:15;;;;;;;;;;;;;;;;;;5071050;28;19920;-49
2022/06/27 14:25:41;;;;;;;;;;;;;;;;;;5097715;28;19934;-49
2022/06/27 14:28:07;;;;;;;;;;;;;;;;;;5082530;28;20398;-52
2022/06/27 14:30:33;;;;;;;;;;;;;;;;;;5087150;28;19915;-47
2022/06/27 14:32:59;;;;;;;;;;;;;;;;;;5098839;28;19927;-49
2022/06/27 14:35:26;;;;;;;;;;;;;;;;;;5102945;28;20399;-52
2022/06/27 14:37:52;;;;;;;;;;;;;;;;;;5095032;28;19933;-49
2022/06/27 14:40:17;;;;;;;;;;;;;;;;;;5082030;28;19924;-51
2022/06/27 14:42:43;;;;;;;;;;;;;;;;;;5082060;28;19915;-47
2022/06/27 14:45:09;;;;;;;;;;;;;;;;;;5083113;28;19939;-52
2022/06/27 14:47:35;;;;;;;;;;;;;;;;;;5085051;28;20391;-51
2022/06/27 14:50:02;;;;;;;;;;;;;;;;;;5086649;28;19937;-51
2022/06/27 14:52:28;;;;;;;;;;;;;;;;;;5063194;28;19912;-51
2022/06/27 14:54:54;;;;;;;;;;;;;;;;;;5088790;28;19923;-51
2022/06/27 14:57:20;;;;;;;;;;;;;;;;;;5100607;28;20380;-51
2022/06/27 14:59:46;;;;;;;;;;;;;;;;;;5089375;28;19923;-52
2022/06/27 15:02:12;;;;;;;;;;;;;;;;;;5082280;28;19908;-49
2022/06/27 15:04:38;;;;;;;;;;;;;;;;;;5097849;28;20433;-51
2022/06/27 15:07:03;;;;;;;;;;;;;;;;;;5100122;28;19908;-50
2022/06/27 15:09:29;;;;;;;;;;;;;;;;;;5090507;28;19959;-52
2022/06/27 15:11:56;;;;;;;;;;;;;;;;;;5079393;28;20449;-48
2022/06/27 15:14:25;;;;;;;;;;;;;;;;;;5055030;28;19922;-48
2022/06/27 15:16:51;;;;;;;;;;;;;;;;;;5085923;28;19920;-51
2022/06/27 15:19:17;;;;;;;;;;;;;;;;;;5086313;28;19923;-52
2022/06/27 15:21:43;;;;;;;;;;;;;;;;;;5079312;28;19916;-51
2022/06/27 15:24:09;;;;;;;;;;;;;;;;;;5068504;28;20375;-51
2022/06/27 15:26:35;;;;;;;;;;;;;;;;;;5068144;28;19948;-49
2022/06/27 15:29:01;;;;;;;;;;;;;;;;;;5067601;28;19959;-51
2022/06/27 15:31:27;;;;;;;;;;;;;;;;;;5071860;28;20450;-52
2022/06/27 15:33:53;;;;;;;;;;;;;;;;;;5076958;28;19970;-48
2022/06/27 15:36:19;;;;;;;;;;;;;;;;;;5067989;28;19977;-50
2022/06/27 15:38:44;;;;;;;;;;;;;;;;;;5049192;28;19913;-50
2022/06/27 15:41:10;;;;;;;;;;;;;;;;;;5068565;28;19913;-51
2022/06/27 15:43:37;;;;;;;;;;;;;;;;;;5067544;28;19964;-49
2022/06/27 15:46:04;;;;;;;;;;;;;;;;;;5067767;28;19912;-50
2022/06/27 15:48:30;;;;;;;;;;;;;;;;;;5049612;28;19912;-51
2022/06/27 15:50:57;;;;;;;;;;;;;;;;;;5068361;28;19986;-50
2022/06/27 15:53:23;;;;;;;;;;;;;;;;;;5068131;28;19943;-49
2022/06/27 15:55:50;;;;;;;;;;;;;;;;;;5068109;28;19913;-48
2022/06/27 15:58:16;;;;;;;;;;;;;;;;;;5068477;28;20572;-50
2022/06/27 16:00:42;;;;;;;;;;;;;;;;;;5068681;28;19923;-47
2022/06/27 16:03:08;;;;;;;;;;;;;;;;;;5078580;28;20044;-49
2022/06/27 16:05:34;;;;;;;;;;;;;;;;;;5087658;28;19964;-48
2022/06/27 16:08:00;;;;;;;;;;;;;;;;;;5083906;28;20441;-50
2022/06/27 16:10:26;;;;;;;;;;;;;;;;;;5067835;28;19934;-48
2022/06/27 16:12:53;;;;;;;;;;;;;;;;;;5080188;28;19908;-48
2022/06/27 16:15:19;;;;;;;;;;;;;;;;;;5078528;28;19912;-49
2022/06/27 16:17:45;;;;;;;;;;;;;;;;;;5087785;28;19912;-48
2022/06/27 16:20:10;;;;;;;;;;;;;;;;;;5085807;28;20445;-48
2022/06/27 16:22:39;;;;;;;;;;;;;;;;;;5083414;28;19926;-48
2022/06/27 16:25:06;;;;;;;;;;;;;;;;;;5088038;28;19915;-49
2022/06/27 16:27:32;;;;;;;;;;;;;;;;;;5069555;28;20395;-48
2022/06/27 16:29:58;;;;;;;;;;;;;;;;;;5066556;28;19954;-47
2022/06/27 16:32:24;;;;;;;;;;;;;;;;;;5075638;28;19966;-48
2022/06/27 16:34:49;;;;;;;;;;;;;;;;;;5087161;28;20442;-48
2022/06/27 16:37:15;;;;;;;;;;;;;;;;;;5086884;28;19916;-48
2022/06/27 16:39:41;;;;;;;;;;;;;;;;;;5071614;28;19942;-50
2022/06/27 16:44:52;;;;;;;;;;;;;;;;;;5068917;28;19970;-49
2022/06/27 16:47:18;;;;;;;;;;;;;;;;;;5065359;28;19917;-51